Time;durP1;ratioP1;P1;durP2;ratioP2;P2;SDS_P1;SDS_P2;PMS_P1;PMS_P2;Temp;Humidity;BMP_temperature;BMP_pressure;BME280_temperature;BME280_humidity;BME280_pressure;Samples;Min_cycle;Max_cycle;Signal;HPM_P1;HPM_P2
2021/07/22 00:02:05;;;;;;;23.90;21.77;;;16.30;99.90;;;;;;5073621;28;20447;-66
2021/07/22 00:04:32;;;;;;;25.23;23.30;;;16.30;99.90;;;;;;5073642;28;20447;-66
2021/07/22 00:06:58;;;;;;;21.33;19.53;;;16.20;99.90;;;;;;5073804;28;20451;-66
2021/07/22 00:09:26;;;;;;;21.57;19.87;;;16.20;99.90;;;;;;5073990;28;20443;-66
2021/07/22 00:11:53;;;;;;;22.27;20.33;;;16.20;99.90;;;;;;5073132;28;20497;-66
2021/07/22 00:14:20;;;;;;;23.13;21.00;;;16.20;99.90;;;;;;5073765;28;20805;-67
2021/07/22 00:16:46;;;;;;;23.67;21.37;;;16.20;99.90;;;;;;5073562;28;20463;-66
2021/07/22 00:19:13;;;;;;;21.47;19.40;;;16.20;99.90;;;;;;5073658;28;20479;-66
2021/07/22 00:21:40;;;;;;;22.30;20.33;;;16.20;99.90;;;;;;5073169;28;20444;-67
2021/07/22 00:24:07;;;;;;;22.30;18.80;;;16.20;99.90;;;;;;5073368;28;20447;-67
2021/07/22 00:26:37;;;;;;;21.67;19.73;;;16.20;99.90;;;;;;5073439;28;20473;-67
2021/07/22 00:29:04;;;;;;;22.27;20.10;;;16.20;99.90;;;;;;5072990;28;20542;-67
2021/07/22 00:31:31;;;;;;;23.07;21.00;;;16.20;99.90;;;;;;5072836;28;20462;-67
2021/07/22 00:34:00;;;;;;;20.70;18.97;;;16.20;99.90;;;;;;5073381;28;20443;-66
2021/07/22 00:36:27;;;;;;;21.37;19.47;;;16.20;99.90;;;;;;5073128;28;20463;-67
2021/07/22 00:38:54;;;;;;;22.23;20.33;;;16.20;99.90;;;;;;5073309;28;20483;-66
2021/07/22 00:41:20;;;;;;;20.40;18.60;;;16.20;99.90;;;;;;5072690;28;20443;-66
2021/07/22 00:43:48;;;;;;;20.87;19.17;;;16.20;99.90;;;;;;5073084;28;20501;-67
2021/07/22 00:46:15;;;;;;;20.53;18.77;;;16.20;99.90;;;;;;5072986;28;20463;-67
2021/07/22 00:48:42;;;;;;;21.63;19.60;;;16.40;99.90;;;;;;5073042;28;20435;-67
2021/07/22 00:51:09;;;;;;;21.43;19.53;;;16.40;99.90;;;;;;5072731;28;20448;-67
2021/07/22 00:53:36;;;;;;;19.93;18.27;;;16.40;99.90;;;;;;5072813;28;20945;-67
2021/07/22 00:56:03;;;;;;;22.27;20.20;;;16.50;99.90;;;;;;5072610;28;20467;-67
2021/07/22 00:58:30;;;;;;;19.77;18.17;;;16.50;99.90;;;;;;5072893;28;20474;-68
2021/07/22 01:00:58;;;;;;;22.10;20.10;;;16.50;99.90;;;;;;5072357;28;20451;-67
2021/07/22 01:03:25;;;;;;;21.83;19.73;;;16.50;99.90;;;;;;5072901;28;20439;-67
2021/07/22 01:05:52;;;;;;;23.60;21.50;;;16.50;99.90;;;;;;5072549;28;20491;-67
2021/07/22 01:08:18;;;;;;;21.57;19.83;;;16.40;99.90;;;;;;5072693;28;20443;-67
2021/07/22 01:10:45;;;;;;;21.67;19.63;;;16.50;99.90;;;;;;5072208;28;20447;-66
2021/07/22 01:13:12;;;;;;;22.47;19.70;;;16.50;99.90;;;;;;5072262;28;20444;-66
2021/07/22 01:15:39;;;;;;;20.43;18.80;;;16.50;99.90;;;;;;5072431;28;21572;-67
2021/07/22 01:18:07;;;;;;;20.63;18.70;;;16.60;99.90;;;;;;5072321;28;20439;-67
2021/07/22 01:20:35;;;;;;;21.27;19.50;;;16.50;99.90;;;;;;5072221;28;20475;-67
2021/07/22 01:23:04;;;;;;;23.27;20.90;;;16.60;99.90;;;;;;5072155;28;20442;-67
2021/07/22 01:25:31;;;;;;;20.17;18.40;;;16.60;99.90;;;;;;5072153;28;20475;-67
2021/07/22 01:27:58;;;;;;;19.30;17.60;;;16.70;99.90;;;;;;5072211;28;20447;-67
2021/07/22 01:30:25;;;;;;;18.80;17.20;;;16.70;99.90;;;;;;5071875;28;20439;-66
2021/07/22 01:32:53;;;;;;;22.97;20.87;;;16.70;99.90;;;;;;5072012;28;20439;-67
2021/07/22 01:35:20;;;;;;;20.03;18.43;;;16.80;99.90;;;;;;5072109;28;20463;-67
2021/07/22 01:37:49;;;;;;;20.83;18.83;;;16.70;99.90;;;;;;5072138;28;20478;-67
2021/07/22 01:40:17;;;;;;;19.30;17.60;;;16.80;99.90;;;;;;5071106;28;20482;-67
2021/07/22 01:42:45;;;;;;;22.10;20.10;;;16.80;99.90;;;;;;5071707;28;20450;-67
2021/07/22 01:45:12;;;;;;;21.83;19.83;;;16.80;99.90;;;;;;5071826;28;20471;-67
2021/07/22 01:47:40;;;;;;;20.83;19.20;;;16.80;99.90;;;;;;5071924;28;20439;-67
2021/07/22 01:50:08;;;;;;;21.20;19.60;;;16.90;99.90;;;;;;5071406;28;20450;-67
2021/07/22 01:52:34;;;;;;;20.00;18.20;;;16.80;99.90;;;;;;5071712;28;20475;-67
2021/07/22 01:55:03;;;;;;;20.73;18.93;;;16.70;99.90;;;;;;5071158;28;20463;-67
2021/07/22 01:57:33;;;;;;;20.77;19.07;;;16.60;99.90;;;;;;5071845;28;20450;-67
2021/07/22 02:00:04;;;;;;;22.10;20.40;;;16.60;99.90;;;;;;5071042;28;21012;-67
2021/07/22 02:02:32;;;;;;;21.93;19.93;;;16.50;99.90;;;;;;5071426;28;20443;-67
2021/07/22 02:04:59;;;;;;;20.27;18.30;;;16.40;99.90;;;;;;5071641;28;20533;-67
2021/07/22 02:07:25;;;;;;;21.87;19.67;;;16.40;99.90;;;;;;5071704;28;20516;-67
2021/07/22 02:09:52;;;;;;;20.83;18.87;;;16.30;99.90;;;;;;5071391;28;20443;-67
2021/07/22 02:12:21;;;;;;;21.63;19.80;;;16.20;99.90;;;;;;5071379;28;20450;-67
2021/07/22 02:14:50;;;;;;;19.47;17.97;;;16.20;99.90;;;;;;5071472;28;20525;-67
2021/07/22 02:17:17;;;;;;;20.77;18.77;;;16.10;99.90;;;;;;5071513;28;20944;-66
2021/07/22 02:19:44;;;;;;;20.20;18.60;;;16.10;99.90;;;;;;5071191;28;20479;-67
2021/07/22 02:22:11;;;;;;;20.47;18.50;;;16.10;99.90;;;;;;5071139;28;20443;-66
2021/07/22 02:24:37;;;;;;;20.10;18.30;;;16.00;99.90;;;;;;5071397;28;20489;-67
2021/07/22 02:27:05;;;;;;;22.97;20.93;;;16.00;99.90;;;;;;5072058;28;20443;-67
2021/07/22 02:29:33;;;;;;;21.07;19.23;;;15.90;99.90;;;;;;5071284;28;20458;-66
2021/07/22 02:31:59;;;;;;;19.23;17.50;;;15.90;99.90;;;;;;5070717;28;20502;-66
2021/07/22 02:34:26;;;;;;;20.43;18.53;;;15.90;99.90;;;;;;5071387;28;20439;-67
2021/07/22 02:36:53;;;;;;;20.90;19.07;;;15.90;99.90;;;;;;5071328;28;20850;-67
2021/07/22 02:39:24;;;;;;;20.00;18.33;;;15.80;99.90;;;;;;5070883;28;20479;-66
2021/07/22 02:41:51;;;;;;;20.73;18.80;;;15.80;99.90;;;;;;5071152;28;20543;-67
2021/07/22 02:44:18;;;;;;;21.00;19.10;;;15.80;99.90;;;;;;5071254;28;20447;-66
2021/07/22 02:46:46;;;;;;;19.57;18.07;;;15.80;99.90;;;;;;5071124;28;20478;-67
2021/07/22 02:49:12;;;;;;;19.83;18.03;;;15.80;99.90;;;;;;5070807;28;20439;-67
2021/07/22 02:51:39;;;;;;;19.10;17.40;;;15.80;99.90;;;;;;5072994;28;20439;-66
2021/07/22 02:54:06;;;;;;;19.80;18.00;;;15.80;99.90;;;;;;5074751;28;20450;-66
2021/07/22 02:56:32;;;;;;;19.13;17.50;;;15.70;99.90;;;;;;5075072;28;20989;-66
2021/07/22 02:58:59;;;;;;;20.50;18.50;;;15.60;99.90;;;;;;5074713;28;20852;-69
2021/07/22 03:01:29;;;;;;;21.50;19.47;;;15.60;99.90;;;;;;5073966;28;20450;-66
2021/07/22 03:03:58;;;;;;;19.60;17.90;;;15.60;99.90;;;;;;5074634;28;20455;-66
2021/07/22 03:06:25;;;;;;;20.70;18.80;;;15.50;99.90;;;;;;5074966;28;20970;-65
2021/07/22 03:08:51;;;;;;;19.63;17.73;;;15.40;99.90;;;;;;5074658;28;20478;-66
2021/07/22 03:11:18;;;;;;;21.43;19.37;;;15.40;99.90;;;;;;5074778;28;20439;-67
2021/07/22 03:13:44;;;;;;;19.67;17.87;;;15.40;99.90;;;;;;5074862;28;20453;-66
2021/07/22 03:16:11;;;;;;;19.30;17.40;;;15.40;99.90;;;;;;5074559;28;20463;-66
2021/07/22 03:18:38;;;;;;;21.10;19.13;;;15.40;99.90;;;;;;5074721;28;20454;-66
2021/07/22 03:21:06;;;;;;;19.67;17.77;;;15.30;99.90;;;;;;5074131;28;20505;-66
2021/07/22 03:23:32;;;;;;;19.73;17.90;;;15.30;99.90;;;;;;5074622;28;20446;-66
2021/07/22 03:25:59;;;;;;;20.67;18.70;;;15.30;99.90;;;;;;5074434;28;20482;-66
2021/07/22 03:28:26;;;;;;;20.17;18.23;;;15.30;99.90;;;;;;5074414;28;20466;-66
2021/07/22 03:30:52;;;;;;;20.33;17.77;;;15.20;99.90;;;;;;5073982;28;20439;-67
2021/07/22 03:33:19;;;;;;;20.23;18.43;;;15.20;99.90;;;;;;5074387;28;20443;-66
2021/07/22 03:35:46;;;;;;;21.27;19.37;;;15.20;99.90;;;;;;5074427;28;20466;-66
2021/07/22 03:38:14;;;;;;;19.20;17.40;;;15.20;99.90;;;;;;5074202;28;20443;-66
2021/07/22 03:40:40;;;;;;;20.47;18.47;;;15.30;99.90;;;;;;5074001;28;20532;-66
2021/07/22 03:43:07;;;;;;;20.53;18.33;;;15.30;99.90;;;;;;5074304;28;20443;-66
2021/07/22 03:45:34;;;;;;;19.70;17.90;;;15.30;99.90;;;;;;5074084;28;20467;-67
2021/07/22 03:48:01;;;;;;;19.23;17.23;;;15.30;99.90;;;;;;5073785;28;20942;-67
2021/07/22 03:50:28;;;;;;;19.73;17.63;;;15.30;99.90;;;;;;5073994;28;20508;-67
2021/07/22 03:52:56;;;;;;;20.07;18.27;;;15.30;99.90;;;;;;5073754;28;20454;-66
2021/07/22 03:55:25;;;;;;;18.27;16.53;;;15.40;99.90;;;;;;5073787;28;20478;-66
2021/07/22 03:57:52;;;;;;;17.80;16.23;;;15.50;99.90;;;;;;5074016;28;20482;-67
2021/07/22 04:00:19;;;;;;;19.10;17.30;;;15.50;99.90;;;;;;5073591;28;20871;-67
2021/07/22 04:02:46;;;;;;;21.50;19.30;;;15.60;99.90;;;;;;5072631;28;20443;-66
2021/07/22 04:05:13;;;;;;;22.47;18.60;;;15.60;99.90;;;;;;5073752;28;20491;-67
2021/07/22 04:07:40;;;;;;;19.00;16.97;;;15.70;99.90;;;;;;5073758;28;20454;-67
2021/07/22 04:10:08;;;;;;;19.53;17.40;;;15.70;99.90;;;;;;5073568;28;20494;-67
2021/07/22 04:12:36;;;;;;;23.40;21.20;;;15.70;99.90;;;;;;5072315;28;20512;-66
2021/07/22 04:15:02;;;;;;;20.20;18.40;;;15.70;99.90;;;;;;5072789;28;20471;-65
2021/07/22 04:17:29;;;;;;;24.47;21.97;;;15.80;99.90;;;;;;5073017;28;20447;-64
2021/07/22 04:19:56;;;;;;;24.07;21.57;;;15.80;99.90;;;;;;5072686;28;20479;-65
2021/07/22 04:22:23;;;;;;;22.67;19.93;;;15.80;99.90;;;;;;5072005;28;20515;-65
2021/07/22 04:24:49;;;;;;;21.03;19.00;;;15.80;99.90;;;;;;5071731;28;20506;-64
2021/07/22 04:27:16;;;;;;;20.37;18.37;;;15.80;99.90;;;;;;5072839;28;20454;-64
2021/07/22 04:29:44;;;;;;;20.13;18.30;;;15.90;99.90;;;;;;5072584;28;20790;-65
2021/07/22 04:32:11;;;;;;;21.83;19.73;;;16.00;99.90;;;;;;5072205;28;20428;-65
2021/07/22 04:34:37;;;;;;;22.17;20.00;;;16.00;99.90;;;;;;5072466;28;20451;-65
2021/07/22 04:37:06;;;;;;;23.70;21.63;;;16.10;99.90;;;;;;5073553;28;20450;-64
2021/07/22 04:39:33;;;;;;;24.47;22.07;;;16.20;99.90;;;;;;5073775;28;20496;-64
2021/07/22 04:41:59;;;;;;;24.10;21.60;;;16.30;99.90;;;;;;5073638;28;20830;-65
2021/07/22 04:44:26;;;;;;;21.60;19.50;;;16.40;99.90;;;;;;5073349;28;20439;-64
2021/07/22 04:46:55;;;;;;;21.80;19.80;;;16.50;99.90;;;;;;5073598;28;20471;-64
2021/07/22 04:49:21;;;;;;;21.30;19.37;;;16.60;99.90;;;;;;5073097;28;20513;-65
2021/07/22 04:51:48;;;;;;;22.10;20.10;;;16.70;99.90;;;;;;5073046;28;20501;-64
2021/07/22 04:54:15;;;;;;;20.90;19.00;;;16.80;99.90;;;;;;5073126;28;20443;-65
2021/07/22 04:56:42;;;;;;;22.57;20.67;;;16.90;99.90;;;;;;5073081;28;20463;-65
2021/07/22 04:59:08;;;;;;;23.00;20.73;;;17.00;99.90;;;;;;5073002;28;20798;-65
2021/07/22 05:01:35;;;;;;;20.57;18.77;;;17.10;99.90;;;;;;5072872;28;20443;-64
2021/07/22 05:04:03;;;;;;;22.57;20.47;;;17.20;99.90;;;;;;5072906;28;20443;-65
2021/07/22 05:06:30;;;;;;;21.47;19.77;;;17.30;99.90;;;;;;5072592;28;20466;-65
2021/07/22 05:08:57;;;;;;;20.80;19.00;;;17.30;99.90;;;;;;5072777;28;20444;-64
2021/07/22 05:11:23;;;;;;;21.33;19.57;;;17.50;99.90;;;;;;5072322;28;20486;-64
2021/07/22 05:13:50;;;;;;;23.30;21.13;;;17.60;99.90;;;;;;5072489;28;20445;-65
2021/07/22 05:16:17;;;;;;;22.50;20.40;;;17.60;99.90;;;;;;5072481;28;20503;-65
2021/07/22 05:18:43;;;;;;;26.00;23.20;;;17.70;99.90;;;;;;5072635;28;20447;-64
2021/07/22 05:21:11;;;;;;;22.90;20.70;;;17.80;99.90;;;;;;5072426;28;20444;-64
2021/07/22 05:23:41;;;;;;;23.80;21.70;;;17.80;99.90;;;;;;5072426;28;20455;-64
2021/07/22 05:26:10;;;;;;;25.00;22.90;;;17.80;99.90;;;;;;5072082;28;20479;-65
2021/07/22 05:28:37;;;;;;;23.70;21.60;;;17.80;99.90;;;;;;5072351;28;20535;-65
2021/07/22 05:31:05;;;;;;;24.50;22.50;;;17.80;99.90;;;;;;5072118;28;20483;-65
2021/07/22 05:33:32;;;;;;;25.40;23.40;;;17.80;99.90;;;;;;5072599;28;20478;-64
2021/07/22 05:36:01;;;;;;;24.43;22.33;;;17.90;99.90;;;;;;5072382;28;20467;-65
2021/07/22 05:38:29;;;;;;;25.40;23.43;;;17.90;99.90;;;;;;5072672;28;20443;-65
2021/07/22 05:40:58;;;;;;;25.20;23.30;;;17.90;99.90;;;;;;5072414;28;20439;-65
2021/07/22 05:43:25;;;;;;;23.77;21.77;;;17.90;99.90;;;;;;5072342;28;20447;-65
2021/07/22 05:45:52;;;;;;;25.67;23.57;;;18.00;99.90;;;;;;5072428;28;20463;-65
2021/07/22 05:48:18;;;;;;;25.40;23.50;;;18.00;99.90;;;;;;5072422;28;20447;-64
2021/07/22 05:50:46;;;;;;;24.90;22.93;;;18.10;99.90;;;;;;5072141;28;20475;-65
2021/07/22 05:53:12;;;;;;;25.83;23.73;;;18.20;99.90;;;;;;5071951;28;20592;-65
2021/07/22 05:55:40;;;;;;;26.60;24.20;;;18.30;99.90;;;;;;5072119;28;20467;-64
2021/07/22 05:58:07;;;;;;;25.20;23.10;;;18.30;99.90;;;;;;5072302;28;20446;-64
2021/07/22 06:00:34;;;;;;;26.43;24.43;;;18.50;99.90;;;;;;5072686;28;20936;-65
2021/07/22 06:03:00;;;;;;;26.40;24.20;;;18.70;99.90;;;;;;5071954;28;20557;-65
2021/07/22 06:05:27;;;;;;;26.90;24.73;;;18.80;99.90;;;;;;5072069;28;20471;-66
2021/07/22 06:07:55;;;;;;;28.40;26.27;;;19.00;99.90;;;;;;5072251;28;20447;-64
2021/07/22 06:10:21;;;;;;;28.00;25.90;;;19.10;99.90;;;;;;5072355;28;20479;-65
2021/07/22 06:12:50;;;;;;;29.03;26.73;;;19.20;99.90;;;;;;5072237;28;20458;-65
2021/07/22 06:15:16;;;;;;;27.20;25.20;;;19.40;99.90;;;;;;5072109;28;20551;-65
2021/07/22 06:17:43;;;;;;;28.77;26.53;;;19.50;99.90;;;;;;5072243;28;20810;-65
2021/07/22 06:20:10;;;;;;;29.60;27.10;;;19.60;99.90;;;;;;5071913;28;20447;-65
2021/07/22 06:22:37;;;;;;;27.67;25.57;;;19.70;99.90;;;;;;5071502;28;20447;-65
2021/07/22 06:25:05;;;;;;;28.87;26.67;;;19.80;99.90;;;;;;5071517;28;20467;-65
2021/07/22 06:27:31;;;;;;;27.50;25.40;;;19.90;99.90;;;;;;5071598;28;20829;-65
2021/07/22 06:30:02;;;;;;;28.60;26.43;;;20.00;99.90;;;;;;5071393;28;20953;-65
2021/07/22 06:32:28;;;;;;;28.10;25.90;;;19.90;99.90;;;;;;5071522;28;20450;-65
2021/07/22 06:34:55;;;;;;;27.80;25.30;;;19.90;99.90;;;;;;5071504;28;20467;-65
2021/07/22 06:37:22;;;;;;;30.03;27.47;;;19.90;99.90;;;;;;5071743;28;20450;-65
2021/07/22 06:39:48;;;;;;;27.03;25.20;;;19.90;99.90;;;;;;5071893;28;20444;-65
2021/07/22 06:42:15;;;;;;;27.37;25.27;;;19.90;99.90;;;;;;5071677;28;20435;-64
2021/07/22 06:44:42;;;;;;;28.10;26.00;;;19.90;99.90;;;;;;5072057;28;20451;-65
2021/07/22 06:47:10;;;;;;;27.20;25.23;;;19.90;99.90;;;;;;5071629;28;20439;-64
2021/07/22 06:49:36;;;;;;;28.77;26.57;;;19.90;99.90;;;;;;5071847;28;20443;-64
2021/07/22 06:52:04;;;;;;;28.73;26.17;;;19.90;99.90;;;;;;5071617;28;20483;-65
2021/07/22 06:54:30;;;;;;;30.10;27.40;;;19.90;99.90;;;;;;5071777;28;20466;-65
2021/07/22 06:56:58;;;;;;;29.00;26.90;;;20.00;99.90;;;;;;5071442;28;20439;-64
2021/07/22 06:59:25;;;;;;;30.67;28.10;;;20.00;99.90;;;;;;5071513;28;20454;-64
2021/07/22 07:01:51;;;;;;;29.83;27.50;;;20.00;99.90;;;;;;5071252;28;20454;-64
2021/07/22 07:04:19;;;;;;;29.83;27.70;;;20.10;99.90;;;;;;5071299;28;20458;-64
2021/07/22 07:06:46;;;;;;;31.87;29.27;;;20.30;99.90;;;;;;5071264;28;20475;-64
2021/07/22 07:09:12;;;;;;;30.43;28.00;;;20.40;99.90;;;;;;5071246;28;20454;-64
2021/07/22 07:11:39;;;;;;;30.17;27.77;;;20.50;99.90;;;;;;5070918;28;20482;-64
2021/07/22 07:14:06;;;;;;;29.37;27.17;;;20.70;99.90;;;;;;5071233;28;20450;-64
2021/07/22 07:16:32;;;;;;;32.27;29.60;;;20.90;99.90;;;;;;5071076;28;20478;-64
2021/07/22 07:18:59;;;;;;;30.50;27.83;;;21.00;99.90;;;;;;5070860;28;20446;-64
2021/07/22 07:21:27;;;;;;;31.60;29.00;;;21.10;99.90;;;;;;5071100;28;20451;-64
2021/07/22 07:23:54;;;;;;;31.40;29.00;;;21.30;99.90;;;;;;5071023;28;20451;-64
2021/07/22 07:26:20;;;;;;;31.30;28.90;;;21.40;99.90;;;;;;5070761;28;20478;-64
2021/07/22 07:28:47;;;;;;;31.03;28.63;;;21.40;99.90;;;;;;5070910;28;20454;-64
2021/07/22 07:31:14;;;;;;;30.13;27.70;;;21.40;99.90;;;;;;5070561;28;20478;-64
2021/07/22 07:33:40;;;;;;;31.70;29.00;;;21.40;99.90;;;;;;5070863;28;20446;-65
2021/07/22 07:36:07;;;;;;;32.30;29.80;;;21.40;99.90;;;;;;5070899;28;20985;-64
2021/07/22 07:38:35;;;;;;;31.03;28.10;;;21.50;99.90;;;;;;5072574;28;20443;-64
2021/07/22 07:41:01;;;;;;;30.67;28.13;;;21.60;99.90;;;;;;5074142;28;20836;-64
2021/07/22 07:43:28;;;;;;;31.97;29.30;;;21.70;99.90;;;;;;5074176;28;20947;-64
2021/07/22 07:45:55;;;;;;;29.60;27.33;;;21.80;99.90;;;;;;5074118;28;20471;-64
2021/07/22 07:48:21;;;;;;;31.17;28.43;;;22.00;99.90;;;;;;5074173;28;20443;-65
2021/07/22 07:50:48;;;;;;;31.97;29.37;;;22.10;99.90;;;;;;5074268;28;20471;-64
2021/07/22 07:53:16;;;;;;;32.10;29.50;;;22.30;99.90;;;;;;5073860;28;20492;-65
2021/07/22 07:55:45;;;;;;;31.67;29.07;;;22.40;99.90;;;;;;5073929;28;20478;-64
2021/07/22 07:58:12;;;;;;;30.50;28.17;;;22.60;99.90;;;;;;5074024;28;20447;-65
2021/07/22 08:00:39;;;;;;;30.77;28.13;;;22.70;99.90;;;;;;5073755;28;20471;-64
2021/07/22 08:03:06;;;;;;;28.67;26.50;;;22.80;99.90;;;;;;5073618;28;20447;-64
2021/07/22 08:05:33;;;;;;;28.83;26.70;;;22.90;99.90;;;;;;5073645;28;20470;-64
2021/07/22 08:08:00;;;;;;;29.83;27.53;;;23.10;99.90;;;;;;5073817;28;20447;-64
2021/07/22 08:10:26;;;;;;;32.57;29.57;;;23.20;99.90;;;;;;5073575;28;20454;-65
2021/07/22 08:12:54;;;;;;;31.70;29.13;;;23.30;99.90;;;;;;5073466;28;20962;-64
2021/07/22 08:15:21;;;;;;;33.77;30.77;;;23.50;99.90;;;;;;5073614;28;20470;-64
2021/07/22 08:17:48;;;;;;;31.07;28.47;;;23.50;99.90;;;;;;5073471;28;20454;-64
2021/07/22 08:20:14;;;;;;;32.53;29.73;;;23.50;99.90;;;;;;5073597;28;20455;-65
2021/07/22 08:22:41;;;;;;;32.13;29.83;;;23.60;99.90;;;;;;5073454;28;20447;-65
2021/07/22 08:25:10;;;;;;;31.70;29.10;;;23.90;99.90;;;;;;5099221;22;20482;-67
2021/07/22 08:27:37;;;;;;;30.37;27.87;;;24.10;99.90;;;;;;5093439;28;20439;-67
2021/07/22 08:30:06;;;;;;;29.23;26.47;;;24.20;99.90;;;;;;5093424;28;20434;-68
2021/07/22 08:32:33;;;;;;;27.70;25.70;;;24.40;99.90;;;;;;5093186;28;20535;-67
2021/07/22 08:35:00;;;;;;;29.73;27.40;;;24.70;98.10;;;;;;5093584;28;20435;-67
2021/07/22 08:37:26;;;;;;;29.70;27.47;;;24.70;96.10;;;;;;5093302;28;20442;-67
2021/07/22 08:39:56;;;;;;;30.10;27.83;;;25.20;97.20;;;;;;5093420;28;20891;-67
2021/07/22 08:42:26;;;;;;;29.43;27.33;;;25.70;94.30;;;;;;5093099;28;20446;-67
2021/07/22 08:44:54;;;;;;;29.37;27.27;;;26.30;91.00;;;;;;5093264;28;20925;-67
2021/07/22 08:47:22;;;;;;;31.40;29.07;;;26.90;90.20;;;;;;5093251;28;20449;-67
2021/07/22 08:49:50;;;;;;;30.57;28.50;;;27.20;84.30;;;;;;5092854;28;20763;-67
2021/07/22 08:52:16;;;;;;;29.70;27.47;;;27.50;80.30;;;;;;5092755;28;20485;-67
2021/07/22 08:54:43;;;;;;;30.33;28.43;;;27.60;77.50;;;;;;5093051;28;20449;-67
2021/07/22 08:57:11;;;;;;;30.40;28.30;;;27.70;75.40;;;;;;5092908;28;20985;-67
2021/07/22 08:59:38;;;;;;;31.47;28.97;;;28.00;73.40;;;;;;5092921;28;20450;-67
2021/07/22 09:02:06;;;;;;;31.60;29.43;;;28.30;70.30;;;;;;5092609;28;20496;-68
2021/07/22 09:04:50;;;;;;;30.87;28.70;;;28.30;69.50;;;;;;5092826;28;20534;-67
2021/07/22 09:07:18;;;;;;;30.60;28.00;;;28.50;65.50;;;;;;5092638;28;20984;-67
2021/07/22 09:09:45;;;;;;;31.80;29.47;;;28.40;64.70;;;;;;5092541;28;20443;-67
2021/07/22 09:12:11;;;;;;;29.33;27.53;;;28.20;63.70;;;;;;5092471;28;20988;-68
2021/07/22 09:14:38;;;;;;;28.97;27.00;;;28.20;63.00;;;;;;5092544;28;20442;-67
2021/07/22 09:17:05;;;;;;;31.07;29.03;;;28.30;63.30;;;;;;5092523;28;20462;-68
2021/07/22 09:19:36;;;;;;;31.97;29.80;;;28.30;63.50;;;;;;5092609;28;20841;-67
2021/07/22 09:22:05;;;;;;;32.03;29.73;;;28.30;63.60;;;;;;5092318;28;20795;-67
2021/07/22 09:24:50;;;;;;;33.33;30.83;;;28.00;59.20;;;;;;5092429;28;20446;-67
2021/07/22 09:27:37;;;;;;;31.43;29.23;;;27.50;60.20;;;;;;5092147;28;20474;-67
2021/07/22 09:30:06;;;;;;;30.87;28.73;;;27.40;62.30;;;;;;5092329;28;20443;-67
2021/07/22 09:32:34;;;;;;;32.20;29.97;;;27.70;62.80;;;;;;5092006;28;20481;-67
2021/07/22 09:35:10;;;;;;;28.57;27.00;;;28.30;61.10;;;;;;5092112;28;20496;-68
2021/07/22 09:37:39;;;;;;;31.90;29.70;;;28.80;61.30;;;;;;5092128;28;20446;-68
2021/07/22 09:40:08;;;;;;;33.07;30.87;;;28.80;58.80;;;;;;5092140;28;20438;-68
2021/07/22 09:42:42;;;;;;;32.57;29.77;;;29.20;58.60;;;;;;5091847;28;20446;-67
2021/07/22 09:45:17;;;;;;;34.77;32.20;;;29.00;58.40;;;;;;5091866;28;20886;-68
2021/07/22 09:47:44;;;;;;;35.27;32.23;;;28.70;59.40;;;;;;5091963;28;20449;-67
2021/07/22 09:50:14;;;;;;;32.30;29.80;;;28.60;60.00;;;;;;5092133;28;20438;-68
2021/07/22 09:52:42;;;;;;;34.07;31.57;;;28.50;62.20;;;;;;5091626;28;20561;-67
2021/07/22 09:55:27;;;;;;;30.53;28.33;;;28.30;61.10;;;;;;5091836;28;20925;-67
2021/07/22 09:57:55;;;;;;;30.23;28.13;;;28.20;59.00;;;;;;5092086;28;20816;-67
2021/07/22 10:00:23;;;;;;;29.07;27.00;;;27.70;59.00;;;;;;5091038;28;20929;-67
2021/07/22 10:02:52;;;;;;;30.13;28.10;;;27.50;58.90;;;;;;5091606;28;20450;-67
2021/07/22 10:05:22;;;;;;;27.83;25.60;;;27.40;59.20;;;;;;5091747;28;20489;-66
2021/07/22 10:07:52;;;;;;;27.37;25.73;;;27.20;61.40;;;;;;5091698;28;20443;-67
2021/07/22 10:10:19;;;;;;;29.90;27.83;;;27.50;58.90;;;;;;5091688;28;20442;-68
2021/07/22 10:12:52;;;;;;;28.03;26.30;;;27.90;58.30;;;;;;5091314;28;20493;-67
2021/07/22 10:15:20;;;;;;;28.93;27.10;;;28.10;57.80;;;;;;5091522;28;20473;-67
2021/07/22 10:17:48;;;;;;;30.80;28.37;;;28.30;57.60;;;;;;5091768;28;20484;-67
2021/07/22 10:20:16;;;;;;;30.03;28.13;;;28.60;56.10;;;;;;5091503;28;20442;-67
2021/07/22 10:22:44;;;;;;;29.87;27.70;;;28.80;55.60;;;;;;5091344;28;20478;-67
2021/07/22 10:25:14;;;;;;;28.13;26.53;;;29.00;55.10;;;;;;5091296;28;20473;-68
2021/07/22 10:27:45;;;;;;;28.03;26.10;;;29.30;55.50;;;;;;5091295;28;20445;-67
2021/07/22 10:30:16;;;;;;;29.30;27.30;;;29.40;55.50;;;;;;5091455;28;20945;-68
2021/07/22 10:32:47;;;;;;;27.77;26.07;;;29.30;55.00;;;;;;5091027;28;20478;-68
2021/07/22 10:35:19;;;;;;;28.07;26.47;;;29.20;55.10;;;;;;5091468;28;20793;-67
2021/07/22 10:38:06;;;;;;;31.50;29.10;;;29.60;53.20;;;;;;5091470;28;20442;-67
2021/07/22 10:40:52;;;;;;;28.53;26.93;;;29.40;52.60;;;;;;5091453;28;20442;-67
2021/07/22 10:43:42;;;;;;;28.27;26.57;;;29.40;51.40;;;;;;5091043;28;20446;-67
2021/07/22 10:46:11;;;;;;;29.83;28.10;;;29.70;52.60;;;;;;5091117;28;20881;-67
2021/07/22 10:48:38;;;;;;;28.83;26.97;;;29.80;51.30;;;;;;5091271;28;20438;-67
2021/07/22 10:51:10;;;;;;;30.47;28.60;;;30.20;51.30;;;;;;5090906;28;20944;-68
2021/07/22 10:53:38;;;;;;;30.03;28.13;;;30.20;51.40;;;;;;5091174;28;20504;-67
2021/07/22 10:56:07;;;;;;;27.43;25.73;;;30.00;49.80;;;;;;5091035;28;20488;-67
2021/07/22 10:58:53;;;;;;;29.13;27.33;;;30.10;50.80;;;;;;5091201;28;20442;-67
2021/07/22 11:02:03;;;;;;;28.97;27.27;;;30.30;50.30;;;;;;5091075;28;20464;-67
2021/07/22 11:04:43;;;;;;;28.00;26.40;;;30.10;49.60;;;;;;5091188;28;20438;-67
2021/07/22 11:07:23;;;;;;;27.57;25.77;;;30.30;50.90;;;;;;5091130;28;20469;-68
2021/07/22 11:09:52;;;;;;;27.87;26.17;;;30.50;49.60;;;;;;5091074;28;20481;-67
2021/07/22 11:12:42;;;;;;;27.20;25.70;;;30.50;49.10;;;;;;5092163;28;20481;-67
2021/07/22 11:15:10;;;;;;;26.63;25.00;;;30.40;49.10;;;;;;5094699;28;20453;-67
2021/07/22 11:17:37;;;;;;;28.17;26.57;;;30.90;49.10;;;;;;5094827;28;20449;-67
2021/07/22 11:20:33;;;;;;;28.03;26.40;;;31.50;48.10;;;;;;5094926;28;20445;-67
2021/07/22 11:23:11;;;;;;;34.10;31.57;;;32.20;47.60;;;;;;5094523;28;20434;-68
2021/07/22 11:25:49;;;;;;;32.53;30.40;;;32.60;46.20;;;;;;5094621;28;20481;-67
2021/07/22 11:28:24;;;;;;;33.23;31.07;;;33.00;44.90;;;;;;5094671;28;20846;-68
2021/07/22 11:31:05;;;;;;;33.77;31.10;;;32.80;45.20;;;;;;5094622;28;20437;-68
2021/07/22 11:33:33;;;;;;;33.00;30.80;;;33.20;44.20;;;;;;5094360;28;20530;-67
2021/07/22 11:36:02;;;;;;;31.50;29.63;;;33.50;44.00;;;;;;5094302;28;20465;-68
2021/07/22 11:38:29;;;;;;;31.63;29.73;;;34.40;44.10;;;;;;5094506;28;20202;-68
2021/07/22 11:40:56;;;;;;;33.10;30.95;;;34.30;41.20;;;;;;5094218;28;20206;-68
2021/07/22 11:43:38;;;;;;;32.67;30.65;;;34.20;41.70;;;;;;5094267;28;20203;-67
2021/07/22 11:46:10;;;;;;;31.90;30.00;;;35.20;39.50;;;;;;5094330;28;20227;-68
2021/07/22 11:48:37;;;;;;;31.13;29.05;;;35.70;38.50;;;;;;5094268;28;20693;-68
2021/07/22 11:51:06;;;;;;;32.20;30.05;;;38.30;39.00;;;;;;5094097;28;20206;-65
2021/07/22 11:53:33;;;;;;;33.42;31.42;;;38.10;36.80;;;;;;5094084;28;20219;-66
2021/07/22 11:56:09;;;;;;;32.38;30.48;;;37.10;37.10;;;;;;5093962;28;20230;-66
2021/07/22 11:58:38;;;;;;;32.40;30.60;;;38.10;36.60;;;;;;5094201;28;20233;-65
2021/07/22 12:01:05;;;;;;;35.63;33.45;;;38.80;34.10;;;;;;5093611;28;20231;-65
2021/07/22 12:03:32;;;;;;;35.05;32.67;;;37.00;34.60;;;;;;5093912;28;20203;-67
2021/07/22 12:05:59;;;;;;;35.05;32.55;;;36.10;36.40;;;;;;5093831;28;20702;-67
2021/07/22 12:08:25;;;;;;;32.00;30.10;;;35.30;37.50;;;;;;5093850;28;20211;-68
2021/07/22 12:10:58;;;;;;;31.83;30.05;;;35.80;39.60;;;;;;5093757;28;20204;-68
2021/07/22 12:13:25;;;;;;;35.47;33.40;;;39.60;36.50;;;;;;5093732;28;20224;-68
2021/07/22 12:15:53;;;;;;;33.95;32.15;;;42.20;32.50;;;;;;5093765;28;20220;-68
2021/07/22 12:18:22;;;;;;;38.13;35.67;;;44.00;30.60;;;;;;5093712;28;20200;-66
2021/07/22 12:20:49;;;;;;;36.03;33.58;;;42.50;28.40;;;;;;5093532;28;20231;-66
2021/07/22 12:23:30;;;;;;;34.53;32.55;;;40.10;30.10;;;;;;5092840;28;20207;-66
2021/07/22 12:25:58;;;;;;;36.80;34.42;;;37.50;33.70;;;;;;5093376;28;20232;-66
2021/07/22 12:28:25;;;;;;;36.17;33.90;;;37.80;35.50;;;;;;5093582;28;20200;-65
2021/07/22 12:30:53;;;;;;;34.65;32.47;;;39.20;33.40;;;;;;5093617;28;20199;-66
2021/07/22 12:33:25;;;;;;;34.20;32.10;;;41.70;32.10;;;;;;5093221;28;20710;-66
2021/07/22 12:35:52;;;;;;;33.72;31.92;;;44.20;30.00;;;;;;5093345;28;20215;-66